Station: Hindmarsh Island  

  Atmospheric Gas Attenuation - ITU Rec 676-11   ----------------- dB/100km -----------------
Date Time Temp RH % AH g/m3 Dew Point Wind Direction Speed kph Gust kph Barometer mB Rainfall Since 9am 24GHz 47GHz 76GHz 122GHz 134GHz 241GHz
05/09 00:10 15.5 85 11.24 13 24 32 1007.1 4.4 25.2 29.5 49.5 130.5 131.3 453.9
05/09 00:00 15.4 86 11.3 13.1 24 37 1007.1 4.4 25.3 29.7 49.8 131.3 132.4 457.5
04/09 23:50 15.5 85 11.24 13 28 39 1007.3 4.4 25.2 29.5 49.5 130.5 131.4 454.0
04/09 23:40 15.8 83 11.17 12.9 30 44 1007.2 4.2 25.0 29.3 49.0 129.2 129.9 448.8
04/09 23:30 15.8 83 11.17 12.9 28 43 1007.8 4.2 25.0 29.3 49.1 129.2 129.9 449.0
04/09 23:20 16 83 11.31 13.1 32 50 1007.7 4.2 25.3 29.5 49.5 130.5 131.5 454.6
04/09 23:10 16.3 80 11.1 12.8 37 54 1007.3 3.8 24.8 29.0 48.4 127.6 128.0 442.5
04/09 23:00 16.5 79 11.09 12.8 32 46 1007 3.6 24.8 28.9 48.2 127.1 127.5 440.8
04/09 22:50 16.7 78 11.08 12.8 22 33 1007.4 3 24.7 28.9 48.1 126.7 127.1 439.3
04/09 22:40 16.7 78 11.08 12.8 22 33 1007.2 2.8 24.7 28.9 48.1 126.7 127.1 439.3
04/09 22:30 16.8 78 11.15 12.9 26 37 1007 2.8 24.9 28.9 48.3 127.3 127.9 442.0
04/09 22:20 16.7 79 11.23 13 32 44 1006.9 2.6 25.1 29.1 48.7 128.3 129.1 446.4
04/09 22:10 16.8 78 11.15 12.9 32 46 1007.4 2.4 24.9 29.0 48.3 127.3 127.9 442.1
04/09 22:00 17.1 76 11.06 12.8 32 46 1007.3 2 24.7 28.7 47.8 125.8 126.2 436.1
04/09 21:50 17.5 74 11.03 12.8 30 41 1008.2 1.2 24.6 28.6 47.4 124.9 125.2 432.7
04/09 21:40 17.7 74 11.16 13 30 44 1007.5 1 24.9 28.7 47.8 126.0 126.6 437.5
04/09 21:30 17.3 75 11.05 12.8 20 37 1006.5 1 24.7 28.6 47.6 125.3 125.6 434.2
04/09 21:20 17.3 76 11.2 13 17 24 1008.5 0.8 25.0 28.9 48.3 127.2 127.9 442.1
04/09 21:10 17.3 75 11.05 12.8 17 26 1007.9 0.8 24.6 28.6 47.6 125.5 125.8 434.7
04/09 21:00 17.1 77 11.21 13 13 20 1007.8 0.6 25.0 29.0 48.4 127.5 128.3 443.4
04/09 20:50 16.7 82 11.65 13.6 19 22 1007.6 0.6 26.0 29.9 50.5 133.2 135.1 467.1
04/09 20:40 15.3 90 11.75 13.7 13 17 1007.9 0.2 26.3 30.5 51.9 136.8 139.0 480.8
04/09 20:30 15.1 89 11.48 13.3 13 19 1007.8 0.2 25.7 30.1 50.8 134.0 135.5 468.5
04/09 20:20 15.4 88 11.56 13.4 15 22 1007.9 0.2 25.9 30.2 51.0 134.4 136.1 470.7
04/09 20:10 15.6 87 11.57 13.4 17 26 1008 0.2 25.9 30.1 50.9 134.2 135.9 470.0
04/09 20:00 15.7 87 11.64 13.5 19 28 1007.9 0.2 26.0 30.2 51.2 134.8 136.7 472.8
04/09 19:50 15.7 87 11.64 13.5 20 26 1008 0.2 26.0 30.2 51.2 134.8 136.8 472.8
04/09 19:40 15.7 86 11.51 13.4 20 28 1008 0.2 25.7 30.0 50.6 133.3 134.9 466.4
04/09 19:30 15.8 86 11.58 13.5 22 30 1008.2 0.2 25.9 30.1 50.8 134.0 135.7 469.3
04/09 19:20 15.8 85 11.44 13.3 24 32 1008.2 0.2 25.6 29.8 50.2 132.4 133.8 462.4
04/09 19:10 15.9 85 11.51 13.4 24 33 1008.1 0.2 25.7 29.9 50.5 133.0 134.6 465.2
04/09 19:00 15.8 86 11.58 13.5 24 35 1008.2 0.2 25.9 30.1 50.8 134.0 135.7 469.3
04/09 18:50 15.9 86 11.65 13.6 26 35 1008.2 0.2 26.0 30.2 51.1 134.6 136.6 472.2
04/09 18:40 15.9 85 11.51 13.4 28 37 1008.2 0.2 25.7 29.9 50.5 133.0 134.6 465.3
04/09 18:30 15.9 85 11.51 13.4 28 37 1008.3 0.2 25.7 29.9 50.5 133.0 134.6 465.3
04/09 18:20 15.9 85 11.51 13.4 28 39 1008.2 0.2 25.7 29.9 50.5 133.0 134.6 465.3
04/09 18:10 15.9 85 11.51 13.4 24 33 1008.3 0.2 25.7 29.9 50.5 133.0 134.6 465.3
04/09 18:00 15.9 85 11.51 13.4 20 28 1008.5 0.2 25.7 29.9 50.5 133.1 134.6 465.4
04/09 17:50 16 84 11.44 13.3 22 30 1008.3 0.2 25.6 29.8 50.1 132.1 133.4 461.2
04/09 17:40 16.4 82 11.44 13.3 22 30 1008.4 0.2 25.5 29.6 49.9 131.4 132.7 458.9
04/09 17:30 16.5 82 11.51 13.4 20 28 1008.7 0.2 25.7 29.7 50.1 132.0 133.6 461.8
04/09 17:20 16.5 81 11.37 13.2 22 30 1008.7 0.2 25.4 29.5 49.5 130.5 131.6 455.0
04/09 17:10 16.7 82 11.65 13.6 20 28 1008.8 0.2 26.0 29.9 50.6 133.3 135.2 467.5
04/09 17:00 16.8 81 11.58 13.5 19 26 1008.9 0.2 25.8 29.8 50.2 132.4 134.0 463.5
04/09 16:50 16.9 80 11.51 13.4 19 26 1009 0.2 25.7 29.6 49.9 131.4 132.9 459.6
04/09 16:40 16.9 81 11.65 13.6 20 30 1009 0.2 26.0 29.8 50.5 133.0 134.9 466.4
04/09 16:30 17.2 80 11.71 13.7 22 30 1008.9 0.2 26.1 29.8 50.5 133.2 135.2 467.5
04/09 16:20 17.7 78 11.77 13.8 20 28 1009 0.2 26.2 29.8 50.5 133.0 135.1 467.4
04/09 16:10 17.8 79 11.99 14.1 22 32 1009.1 0.2 26.6 30.1 51.3 135.3 138.0 477.6
04/09 16:00 17.8 80 12.14 14.3 20 28 1009.3 0.2 26.9 30.4 52.0 137.1 140.1 485.0
04/09 15:50 17.4 79 11.71 13.7 22 30 1009.4 0.2 26.0 29.8 50.4 132.9 134.9 466.4
04/09 15:40 17.3 81 11.93 14 22 30 1009.3 0.2 26.5 30.2 51.4 135.5 138.1 477.8
04/09 15:30 16.6 85 12.01 14.1 19 22 1009.5 0.2 26.7 30.6 52.2 137.7 140.5 486.2
04/09 15:20 16.2 84 11.58 13.5 20 28 1009.8 0.2 25.8 30.0 50.7 133.5 135.2 467.5
04/09 15:10 16.4 83 11.58 13.5 26 33 1009.9 0.2 25.8 29.9 50.5 133.2 134.9 466.3
04/09 15:00 16.8 81 11.58 13.5 28 39 1010.1 0.2 25.8 29.8 50.3 132.5 134.2 464.0
04/09 14:50 17.5 81 12.08 14.2 26 35 1010 0.2 26.8 30.4 52.0 137.0 139.9 484.2
04/09 14:40 16.8 83 11.87 13.9 22 35 1010.1 0.2 26.4 30.3 51.5 135.8 138.3 478.2
04/09 14:30 16.8 85 12.15 14.3 26 33 1010.4 0.2 27.0 30.8 52.8 139.1 142.3 492.2
04/09 14:20 16.3 85 11.79 13.8 24 32 1010.4 0.2 26.3 30.3 51.5 135.8 138.1 477.5
04/09 14:10 15.6 86 11.44 13.3 24 33 1010.7 0.2 25.6 30.0 50.5 133.0 134.4 464.5
04/09 14:00 15.7 86 11.51 13.4 24 32 1010.6 0.2 25.7 30.1 50.7 133.7 135.2 467.3
04/09 13:50 15.6 86 11.44 13.3 24 32 1010.9 0.2 25.6 30.0 50.5 133.1 134.4 464.6
04/09 13:40 16.1 84 11.51 13.4 24 33 1010.9 0.2 25.7 30.0 50.5 133.0 134.5 465.0
04/09 13:30 16.8 80 11.44 13.3 20 30 1010.9 0.2 25.5 29.6 49.7 131.0 132.3 457.4
04/09 13:20 16.1 78 10.69 12.3 24 33 1011.1 0.2 23.9 28.6 47.0 123.7 123.1 425.2
04/09 13:10 16.5 76 10.67 12.3 26 33 1011.5 0.2 23.9 28.4 46.7 122.9 122.2 422.2
04/09 13:00 16.5 78 10.95 12.7 26 33 1011.9 0.2 24.5 28.9 47.9 126.1 126.1 435.7
04/09 12:50 16.5 77 10.81 12.5 28 35 1012 0.2 24.2 28.7 47.3 124.5 124.2 429.0
04/09 12:40 16.8 69 9.86 11.1 20 28 1012.8 0 22.1 27.0 43.3 113.8 111.0 382.9
04/09 12:30 17.5 64 9.54 10.6 17 22 1013.1 0 21.4 26.3 41.6 109.4 105.8 365.0
04/09 12:20 17.8 72 10.93 12.7 13 17 1013.1 0 24.3 28.5 47.1 123.9 123.8 428.0
04/09 12:10 18 79 12.13 14.3 15 20 1012.9 0 26.9 30.4 52.0 137.0 140.0 484.6
04/09 12:00 16.8 78 11.15 12.9 11 15 1013.5 0 24.9 29.2 48.6 128.0 128.5 444.2
04/09 11:50 16.6 77 10.88 12.6 13 19 1014.1 0 24.3 28.8 47.6 125.4 125.2 432.5
04/09 11:40 16.5 77 10.81 12.5 19 24 1014.2 0 24.2 28.7 47.4 124.8 124.4 429.8
04/09 11:30 16.5 75 10.53 12.1 20 28 1014.2 0 23.6 28.3 46.3 121.7 120.6 416.4
04/09 11:20 16.4 75 10.47 12 20 28 1014.5 0 23.4 28.2 46.1 121.2 119.9 414.1
04/09 11:10 16.5 75 10.53 12.1 20 26 1014.8 0 23.6 28.3 46.3 121.8 120.6 416.6
04/09 11:00 16.4 74 10.33 11.8 22 28 1014.9 0 23.1 28.0 45.5 119.7 118.1 407.6
04/09 10:50 16.8 75 10.72 12.3 22 28 1014.9 0 24.0 28.5 46.9 123.4 122.8 424.0
04/09 10:40 16.5 74 10.39 11.9 20 26 1015.1 0 23.3 28.1 45.7 120.2 118.7 410.0
04/09 10:30 16.3 78 10.82 12.5 20 26 1015.2 0 24.2 28.9 47.6 125.4 125.0 431.7
04/09 10:20 15.4 80 10.51 12 20 28 1015.4 0 23.6 28.6 46.9 123.3 122.1 421.7
04/09 10:10 15.1 80 10.32 11.7 24 30 1015.4 0 23.2 28.4 46.3 121.7 120.0 414.2
04/09 10:00 14.7 82 10.32 11.7 24 32 1015.6 0 23.2 28.6 46.5 122.3 120.6 416.4
04/09 09:50 14.6 82 10.26 11.6 24 32 1015.7 0 23.1 28.5 46.3 121.8 120.0 414.0
04/09 09:40 14.3 83 10.2 11.5 22 32 1015.7 0 23.0 28.5 46.2 121.6 119.6 412.7
04/09 09:30 14 83 10.01 11.2 20 28 1016 0 22.6 28.3 45.6 120.0 117.5 405.2
04/09 09:20 13.6 82 9.65 10.6 22 26 1016 0 21.8 27.8 44.3 116.5 113.1 389.8
04/09 09:10 13.4 84 9.77 10.8 20 26 1016.1 0 22.1 28.1 45.0 118.2 115.0 396.6
04/09 09:00 13 84 9.53 10.4 20 28 1016.2 0 21.6 27.8 44.2 116.1 112.3 387.1
04/09 08:50 12.6 84 9.29 10 22 30 1016.5 0.2 21.1 27.5 43.4 114.0 109.6 377.5
04/09 08:40 12.5 84 9.24 9.9 22 30 1016.5 0.2 21.0 27.5 43.3 113.6 109.1 375.6
04/09 08:30 12.4 84 9.18 9.8 26 33 1016.4 0.2 20.9 27.4 43.1 113.1 108.4 373.2
04/09 08:20 12.4 84 9.18 9.8 24 33 1016.2 0.2 20.9 27.4 43.0 113.1 108.4 373.1
04/09 08:10 12.2 85 9.17 9.8 26 32 1016 0.2 20.9 27.4 43.1 113.2 108.5 373.5
04/09 08:00 12.3 83 9.01 9.5 26 33 1016.3 0.2 20.5 27.1 42.4 111.3 106.2 365.4
04/09 07:50 12.2 82 8.85 9.2 26 35 1016.3 0.2 20.2 26.9 41.8 109.7 104.1 358.2
04/09 07:40 12.2 82 8.85 9.2 26 37 1016.2 0.2 20.2 26.9 41.8 109.7 104.1 358.2

Last Refresh: 05-Sep-2026 00:24:57

Bureau of Meteorology